Time;durP1;ratioP1;P1;durP2;ratioP2;P2;SDS_P1;SDS_P2;PMS_P1;PMS_P2;Temp;Humidity;BMP_temperature;BMP_pressure;BME280_temperature;BME280_humidity;BME280_pressure;Samples;Min_cycle;Max_cycle;Signal;HPM_P1;HPM_P2
2022/12/29 00:01:05;;;;;;;21.10;7.90;;;;;;;2.19;66.25;99132.36;103319;1294;99266;-68
2022/12/29 00:03:34;;;;;;;20.50;7.40;;;;;;;2.18;65.97;99127.48;103236;1301;108096;-68
2022/12/29 00:06:04;;;;;;;21.20;7.50;;;;;;;2.18;66.40;99129.60;103078;1301;99277;-68
2022/12/29 00:08:41;;;;;;;18.70;7.40;;;;;;;2.18;66.09;99128.75;103210;1294;99347;-66
2022/12/29 00:11:19;;;;;;;20.70;7.40;;;;;;;2.17;66.33;99128.06;103305;1300;113591;-68
2022/12/29 00:16:38;;;;;;;16.50;6.50;;;;;;;2.16;66.58;99129.86;103087;1304;108208;-65
2022/12/29 00:35:07;;;;;;;20.10;7.70;;;;;;;2.16;66.38;99123.02;103293;1294;99917;-65
2022/12/29 00:36:33;;;;;;;20.80;8.20;;;;;;;2.19;66.36;99138.47;103241;1294;96907;-65
2022/12/29 00:44:56;;;;;;;17.40;6.80;;;;;;;2.29;66.05;99136.02;103254;1301;108037;-67
2022/12/29 00:47:24;;;;;;;20.50;7.20;;;;;;;2.31;66.10;99140.49;103277;1301;99209;-64
2022/12/29 00:49:52;;;;;;;15.90;6.20;;;;;;;2.33;66.39;99143.89;103303;1301;99916;-66
2022/12/29 00:52:20;;;;;;;16.80;6.40;;;;;;;2.35;66.05;99146.09;103228;1294;113770;-66
2022/12/29 00:54:48;;;;;;;16.10;5.80;;;;;;;2.36;66.16;99143.44;103323;1294;99284;-65
2022/12/29 00:57:16;;;;;;;15.00;5.60;;;;;;;2.37;65.82;99140.08;103313;1294;108032;-66
2022/12/29 00:59:46;;;;;;;18.20;6.90;;;;;;;2.39;65.52;99138.09;103307;1295;99322;-66
2022/12/29 01:02:14;;;;;;;16.00;5.90;;;;;;;2.42;65.72;99129.40;103325;1301;96485;-65
2022/12/29 01:04:43;;;;;;;16.50;6.80;;;;;;;2.43;65.63;99131.13;103224;1293;113270;-66
2022/12/29 01:07:13;;;;;;;16.10;6.30;;;;;;;2.45;65.78;99127.38;103311;1295;99218;-65
2022/12/29 01:12:41;;;;;;;15.40;5.80;;;;;;;2.47;65.98;99131.67;103328;1300;99291;-65
2022/12/29 01:15:14;;;;;;;18.00;5.50;;;;;;;2.47;65.65;99129.02;103268;1301;99208;-68
2022/12/29 01:17:42;;;;;;;16.30;5.60;;;;;;;2.48;65.97;99136.18;103239;1294;113290;-66
2022/12/29 01:20:12;;;;;;;16.10;5.30;;;;;;;2.48;65.84;99132.30;103286;1297;96552;-66
2022/12/29 01:22:42;;;;;;;15.20;5.70;;;;;;;2.49;65.79;99130.88;103290;1299;107909;-68
2022/12/29 01:25:11;;;;;;;16.40;6.40;;;;;;;2.49;65.81;99124.75;103294;1294;99345;-68
2022/12/29 01:27:39;;;;;;;13.60;5.30;;;;;;;2.50;65.69;99124.17;103327;1303;99370;-65
2022/12/29 01:30:09;;;;;;;15.40;5.50;;;;;;;2.52;65.69;99117.99;103265;1297;113038;-66
2022/12/29 01:32:37;;;;;;;15.30;5.70;;;;;;;2.52;65.63;99120.79;103233;1294;99223;-65
2022/12/29 01:35:07;;;;;;;17.80;5.70;;;;;;;2.52;65.71;99119.38;103223;1302;108038;-64
2022/12/29 01:37:36;;;;;;;19.20;6.00;;;;;;;2.52;65.47;99114.83;103228;1302;99350;-65
2022/12/29 01:40:07;;;;;;;15.60;6.20;;;;;;;2.52;65.63;99114.30;103285;1294;98289;-66
2022/12/29 01:42:35;;;;;;;18.50;6.00;;;;;;;2.52;65.34;99108.89;103340;1294;112282;-65
2022/12/29 01:45:17;;;;;;;14.00;5.40;;;;;;;2.52;65.59;99106.61;103280;1294;99200;-65
2022/12/29 01:47:58;;;;;;;14.80;5.50;;;;;;;2.53;65.59;99116.55;103297;1297;107511;-65
2022/12/29 01:50:32;;;;;;;18.00;6.10;;;;;;;2.52;65.67;99116.95;103280;1296;99327;-64
2022/12/29 01:53:06;;;;;;;15.00;5.40;;;;;;;2.51;65.47;99116.27;103332;1301;99306;-64
2022/12/29 01:55:45;;;;;;;13.10;5.20;;;;;;;2.51;65.69;99115.91;103308;1294;112807;-64
2022/12/29 01:58:17;;;;;;;16.60;5.70;;;;;;;2.52;65.39;99107.84;103317;1302;99108;-65
2022/12/29 02:00:47;;;;;;;14.40;4.90;;;;;;;2.52;65.35;99107.14;103332;1294;107185;-64
2022/12/29 02:03:20;;;;;;;16.40;5.30;;;;;;;2.51;65.35;99100.52;103324;1294;99189;-64
2022/12/29 02:06:12;;;;;;;18.10;6.00;;;;;;;2.51;65.60;99099.13;103290;1300;96578;-65
2022/12/29 02:08:46;;;;;;;14.70;5.50;;;;;;;2.51;65.32;99090.88;103295;1294;113131;-65
2022/12/29 02:11:18;;;;;;;19.00;5.80;;;;;;;2.51;65.11;99083.54;103198;1304;99344;-64
2022/12/29 02:13:46;;;;;;;17.60;5.40;;;;;;;2.51;65.04;99081.27;103309;1300;107541;-66
2022/12/29 02:16:29;;;;;;;15.10;5.70;;;;;;;2.51;65.17;99079.69;103350;1301;99301;-66
2022/12/29 02:19:18;;;;;;;13.80;5.50;;;;;;;2.51;65.21;99078.64;103275;1288;99432;-65
2022/12/29 02:22:12;;;;;;;15.60;5.50;;;;;;;2.51;65.12;99077.04;103322;1294;112805;-65
2022/12/29 02:24:52;;;;;;;15.10;5.00;;;;;;;2.51;65.14;99070.75;103060;1294;99119;-65
2022/12/29 02:27:39;;;;;;;11.60;4.60;;;;;;;2.51;65.33;99066.75;103222;1301;108158;-65
2022/12/29 02:30:16;;;;;;;12.70;4.40;;;;;;;2.52;65.13;99070.54;103264;1295;99329;-64
2022/12/29 02:32:56;;;;;;;13.80;4.90;;;;;;;2.52;64.92;99063.52;103297;1295;99368;-65
2022/12/29 02:35:36;;;;;;;16.90;5.80;;;;;;;2.54;64.95;99060.86;103309;1294;113159;-64
2022/12/29 02:38:23;;;;;;;15.00;4.80;;;;;;;2.57;64.53;99070.04;103323;1294;99268;-64
2022/12/29 02:41:06;;;;;;;10.80;4.50;;;;;;;2.61;64.39;99069.33;103308;1301;107841;-68
2022/12/29 02:44:06;;;;;;;16.40;5.30;;;;;;;2.65;64.58;99070.39;103299;1294;99286;-67
2022/12/29 02:46:54;;;;;;;10.80;4.50;;;;;;;2.68;64.77;99076.39;103283;1294;99223;-66
2022/12/29 02:49:34;;;;;;;13.10;4.80;;;;;;;2.70;64.44;99082.11;103328;1297;112626;-65
2022/12/29 02:52:14;;;;;;;11.70;4.10;;;;;;;2.71;64.94;99088.90;103320;1295;99912;-65
2022/12/29 02:54:44;;;;;;;14.10;5.10;;;;;;;2.71;64.75;99090.12;103361;1287;107247;-65
2022/12/29 02:57:22;;;;;;;12.60;4.80;;;;;;;2.72;64.67;99092.02;103320;1294;99208;-65
2022/12/29 03:00:01;;;;;;;13.60;4.60;;;;;;;2.73;64.85;99090.75;103327;1301;97991;-68
2022/12/29 03:02:38;;;;;;;12.70;4.60;;;;;;;2.72;64.37;99084.64;103326;1287;112441;-66
2022/12/29 03:05:27;;;;;;;14.60;5.20;;;;;;;2.73;64.82;99075.14;103362;1294;97609;-65
2022/12/29 03:08:02;;;;;;;13.20;4.40;;;;;;;2.74;64.68;99070.05;103275;1301;108038;-65
2022/12/29 03:10:36;;;;;;;13.30;5.10;;;;;;;2.74;64.63;99072.84;103321;1301;99242;-66
2022/12/29 03:16:24;;;;;;;15.90;5.10;;;;;;;2.76;64.60;99063.13;103273;1302;112874;-65
2022/12/29 03:19:19;;;;;;;12.10;4.60;;;;;;;2.76;64.33;99070.98;103296;1301;100387;-66
2022/12/29 03:24:57;;;;;;;12.70;4.80;;;;;;;2.78;64.36;99081.09;103289;1287;99259;-66
2022/12/29 03:27:33;;;;;;;15.20;4.80;;;;;;;2.79;64.53;99078.59;103349;1294;99304;-66
2022/12/29 03:30:06;;;;;;;13.70;4.30;;;;;;;2.79;64.67;99080.69;103327;1300;113119;-64
2022/12/29 03:32:57;;;;;;;11.70;5.20;;;;;;;2.80;64.19;99075.73;103348;1287;99319;-65
2022/12/29 03:35:32;;;;;;;15.60;5.20;;;;;;;2.82;64.65;99067.80;103257;1294;108156;-65
2022/12/29 03:38:27;;;;;;;8.50;4.10;;;;;;;2.83;64.72;99063.90;103336;1301;99227;-68
2022/12/29 03:41:03;;;;;;;15.10;4.90;;;;;;;2.83;63.92;99066.34;103307;1296;99339;-69
2022/12/29 03:43:33;;;;;;;15.70;4.80;;;;;;;2.84;64.16;99071.40;103299;1297;112482;-66
2022/12/29 03:46:02;;;;;;;12.20;5.20;;;;;;;2.85;64.52;99070.66;103324;1301;96560;-66
2022/12/29 03:48:32;;;;;;;16.80;4.70;;;;;;;2.87;64.53;99077.92;103329;1294;108187;-66
2022/12/29 03:51:02;;;;;;;11.20;4.20;;;;;;;2.88;64.08;99068.78;103307;1301;99280;-64
2022/12/29 03:53:30;;;;;;;13.10;4.90;;;;;;;2.88;64.32;99084.16;103311;1295;96550;-65
2022/12/29 03:55:59;;;;;;;13.00;4.60;;;;;;;2.89;64.21;99091.30;103341;1285;113077;-66
2022/12/29 03:58:27;;;;;;;13.20;4.70;;;;;;;2.90;63.86;99099.86;103311;1302;99182;-65
2022/12/29 04:00:57;;;;;;;10.30;4.20;;;;;;;2.90;64.11;99099.31;103307;1295;107393;-64
2022/12/29 04:03:25;;;;;;;11.60;4.30;;;;;;;2.91;64.10;99095.95;103325;1300;99230;-67
2022/12/29 04:05:55;;;;;;;13.60;4.20;;;;;;;2.92;64.19;99088.05;103357;1301;99215;-65
2022/12/29 04:08:23;;;;;;;11.20;4.40;;;;;;;2.91;64.33;99081.27;103321;1295;112129;-63
2022/12/29 04:10:51;;;;;;;10.20;4.20;;;;;;;2.90;64.00;99076.92;103343;1294;99234;-64
2022/12/29 04:13:21;;;;;;;12.90;4.20;;;;;;;2.89;64.13;99076.09;103307;1301;107993;-67
2022/12/29 04:15:53;;;;;;;8.80;3.60;;;;;;;2.90;63.91;99071.67;103302;1300;99318;-64
2022/12/29 04:18:22;;;;;;;10.00;4.00;;;;;;;2.90;64.05;99075.17;103344;1294;96559;-65
2022/12/29 04:20:59;;;;;;;17.20;5.80;;;;;;;2.91;63.54;99066.71;103332;1294;112979;-65
2022/12/29 04:23:32;;;;;;;10.70;3.80;;;;;;;2.93;63.86;99075.56;103323;1294;96465;-65
2022/12/29 04:26:02;;;;;;;10.20;4.40;;;;;;;2.95;63.67;99070.58;103330;1294;107212;-65
2022/12/29 04:28:31;;;;;;;10.20;3.80;;;;;;;2.96;63.26;99066.69;103338;1301;99183;-66
2022/12/29 04:31:01;;;;;;;9.70;3.90;;;;;;;2.97;63.63;99061.74;103327;1301;99331;-66
2022/12/29 04:33:31;;;;;;;12.60;4.30;;;;;;;2.97;63.25;99059.80;103231;1301;113165;-65
2022/12/29 04:35:59;;;;;;;12.10;4.10;;;;;;;2.97;63.05;99062.27;103318;1294;99304;-64
2022/12/29 04:38:29;;;;;;;12.40;4.10;;;;;;;2.96;62.73;99058.45;103300;1294;108023;-65
2022/12/29 04:41:01;;;;;;;10.20;4.10;;;;;;;2.96;63.46;99057.91;103299;1301;99346;-65
2022/12/29 04:43:30;;;;;;;13.00;4.70;;;;;;;2.97;63.36;99057.18;103268;1292;99246;-64
2022/12/29 04:45:58;;;;;;;11.10;4.10;;;;;;;2.96;63.55;99062.67;103248;1294;113512;-65
2022/12/29 04:48:29;;;;;;;12.10;4.10;;;;;;;2.96;63.26;99057.06;103306;1301;99343;-65
2022/12/29 04:50:57;;;;;;;10.20;4.00;;;;;;;2.95;63.40;99057.96;103112;1294;218039;-64
2022/12/29 04:53:27;;;;;;;9.90;4.00;;;;;;;2.95;63.41;99056.56;103189;1297;97046;-65
2022/12/29 04:55:55;;;;;;;12.90;4.50;;;;;;;2.95;62.78;99051.49;103274;1301;99465;-64
2022/12/29 04:58:24;;;;;;;11.20;4.40;;;;;;;2.94;62.97;99049.62;103251;1294;113148;-64
2022/12/29 05:00:53;;;;;;;12.60;4.40;;;;;;;2.93;63.03;99050.70;103297;1299;99330;-65
2022/12/29 05:03:21;;;;;;;12.40;4.50;;;;;;;2.93;63.18;99042.45;103262;1302;107896;-64
2022/12/29 05:05:57;;;;;;;17.30;4.90;;;;;;;2.95;62.66;99042.04;103301;1301;99239;-65
2022/12/29 05:08:27;;;;;;;10.50;4.00;;;;;;;2.97;63.08;99034.25;103217;1298;99226;-64
2022/12/29 05:10:56;;;;;;;11.00;4.60;;;;;;;2.98;62.73;99028.08;103301;1295;113023;-65
2022/12/29 05:13:25;;;;;;;12.90;4.50;;;;;;;2.97;62.62;99016.20;103277;1303;99191;-66
2022/12/29 05:15:54;;;;;;;9.40;4.10;;;;;;;2.96;62.76;99029.00;103260;1298;108112;-64
2022/12/29 05:18:24;;;;;;;13.40;4.20;;;;;;;2.98;62.75;99035.25;103319;1298;99292;-65
2022/12/29 05:20:52;;;;;;;11.00;4.20;;;;;;;2.98;62.79;99040.30;103316;1301;99376;-64
2022/12/29 05:23:20;;;;;;;11.70;4.70;;;;;;;3.01;62.69;99043.05;103252;1294;113280;-65
2022/12/29 05:25:48;;;;;;;9.90;4.00;;;;;;;3.02;62.89;99047.19;103247;1294;99351;-67
2022/12/29 05:28:17;;;;;;;12.50;4.20;;;;;;;3.05;62.79;99044.23;103215;1301;107733;-65
2022/12/29 05:30:51;;;;;;;9.90;3.90;;;;;;;3.07;62.63;99043.64;103268;1301;99103;-66
2022/12/29 05:33:20;;;;;;;11.90;4.30;;;;;;;3.08;62.75;99036.59;103203;1301;99414;-65
2022/12/29 05:35:48;;;;;;;10.60;4.20;;;;;;;3.08;62.59;99030.09;103284;1292;112768;-66
2022/12/29 05:38:16;;;;;;;10.80;3.90;;;;;;;3.09;62.41;99022.16;103273;1294;99264;-65
2022/12/29 05:40:46;;;;;;;12.40;4.70;;;;;;;3.10;62.67;99024.22;103204;1294;108157;-64
2022/12/29 05:43:14;;;;;;;11.70;4.10;;;;;;;3.10;62.20;99017.02;103179;1294;99253;-65
2022/12/29 05:45:42;;;;;;;11.80;4.40;;;;;;;3.11;62.57;99017.52;103336;1291;100397;-66
2022/12/29 05:48:10;;;;;;;10.00;4.20;;;;;;;3.11;62.49;99007.36;103247;1295;112914;-64
2022/12/29 05:50:38;;;;;;;13.30;4.60;;;;;;;3.10;62.30;99000.20;103290;1295;99223;-64
2022/12/29 05:53:07;;;;;;;11.10;4.20;;;;;;;3.10;62.56;99013.35;103183;1294;108172;-64
2022/12/29 05:55:36;;;;;;;17.30;4.90;;;;;;;3.10;62.84;99012.12;103244;1295;99219;-66
2022/12/29 05:58:07;;;;;;;13.60;4.60;;;;;;;3.10;62.42;99002.68;103327;1294;99433;-65
2022/12/29 06:00:36;;;;;;;11.90;4.10;;;;;;;3.08;62.06;99003.80;103276;1300;113099;-65
2022/12/29 06:03:04;;;;;;;12.10;3.90;;;;;;;3.08;62.20;99005.38;103296;1302;99198;-65
2022/12/29 06:05:35;;;;;;;15.20;5.70;;;;;;;3.07;62.32;99009.29;103220;1294;108087;-65
2022/12/29 06:08:05;;;;;;;14.60;4.50;;;;;;;3.08;62.47;99010.30;103181;1300;99226;-64
2022/12/29 06:10:33;;;;;;;11.10;4.10;;;;;;;3.07;61.54;99000.34;103235;1301;99776;-66
2022/12/29 06:13:03;;;;;;;15.30;4.50;;;;;;;3.07;61.61;98997.38;103166;1297;112809;-65
2022/12/29 06:15:34;;;;;;;12.40;4.30;;;;;;;3.07;62.04;99011.04;103196;1295;99290;-65
2022/12/29 06:18:04;;;;;;;10.30;4.10;;;;;;;3.07;62.00;99010.52;103367;1294;108126;-66
2022/12/29 06:20:33;;;;;;;12.10;5.20;;;;;;;3.07;62.22;99018.42;103232;1294;96873;-65
2022/12/29 06:23:02;;;;;;;13.50;4.80;;;;;;;3.05;62.43;99021.09;103304;1294;99179;-65
2022/12/29 06:25:32;;;;;;;15.60;4.80;;;;;;;3.05;62.11;99017.61;103217;1301;113061;-66
2022/12/29 06:28:00;;;;;;;10.50;3.90;;;;;;;3.05;62.56;99017.46;103242;1294;99356;-66
2022/12/29 06:30:32;;;;;;;11.50;4.30;;;;;;;3.04;61.64;99021.35;103191;1287;107173;-67
2022/12/29 06:33:02;;;;;;;11.00;4.40;;;;;;;3.03;61.62;99020.34;103184;1301;99315;-66
2022/12/29 06:35:30;;;;;;;15.80;5.20;;;;;;;3.03;61.84;99027.67;103216;1294;99183;-65
2022/12/29 06:37:59;;;;;;;10.90;4.10;;;;;;;3.04;62.13;99024.85;103273;1302;113143;-69
2022/12/29 06:40:28;;;;;;;10.90;4.60;;;;;;;3.05;62.24;99027.95;103233;1301;99302;-69
2022/12/29 06:42:57;;;;;;;11.60;4.20;;;;;;;3.06;62.11;99030.70;103170;1294;108279;-67
2022/12/29 06:45:25;;;;;;;14.00;4.70;;;;;;;3.07;61.64;99027.48;103189;1301;99290;-67
2022/12/29 06:47:53;;;;;;;12.90;4.70;;;;;;;3.09;61.94;99025.84;103305;1294;96546;-68
2022/12/29 06:50:23;;;;;;;11.90;4.70;;;;;;;3.11;62.20;99013.49;103260;1294;113113;-70
2022/12/29 06:52:51;;;;;;;11.20;4.50;;;;;;;3.12;62.31;99016.23;103226;1293;98968;-69
2022/12/29 06:55:19;;;;;;;8.70;4.00;;;;;;;3.15;61.97;99017.38;103226;1294;107484;-69
2022/12/29 06:57:47;;;;;;;10.70;4.40;;;;;;;3.16;61.93;99015.22;103236;1301;99348;-69
2022/12/29 07:00:17;;;;;;;11.20;4.70;;;;;;;3.18;62.07;99015.66;103345;1295;99334;-69
2022/12/29 07:02:51;;;;;;;10.60;4.30;;;;;;;3.20;61.92;99013.30;103320;1294;112338;-70
2022/12/29 07:05:20;;;;;;;13.40;4.60;;;;;;;3.23;62.06;99014.23;103324;1294;99224;-70
2022/12/29 07:07:48;;;;;;;13.00;4.30;;;;;;;3.25;61.91;99010.77;103287;1300;107667;-70
2022/12/29 07:10:16;;;;;;;10.50;4.00;;;;;;;3.30;61.85;99012.88;103255;1294;99326;-69
2022/12/29 07:12:45;;;;;;;13.60;4.60;;;;;;;3.31;61.43;99009.66;103179;1302;99226;-69
2022/12/29 07:15:13;;;;;;;11.70;4.40;;;;;;;3.34;61.66;99013.42;103103;1294;112450;-67
2022/12/29 07:17:41;;;;;;;11.80;4.50;;;;;;;3.36;61.75;99005.58;104968;1294;98943;-67
2022/12/29 07:20:11;;;;;;;12.60;4.50;;;;;;;3.40;61.92;99005.09;103580;1295;106673;-70
2022/12/29 07:22:39;;;;;;;14.30;5.10;;;;;;;3.42;61.57;99007.26;103181;1288;99752;-69
2022/12/29 07:25:09;;;;;;;12.80;4.90;;;;;;;3.43;61.15;98996.00;103182;1301;99231;-69
2022/12/29 07:27:37;;;;;;;12.30;4.70;;;;;;;3.47;61.06;98998.64;103204;1301;113147;-73
2022/12/29 07:30:08;;;;;;;11.10;4.40;;;;;;;3.50;61.57;98996.02;103194;1297;99339;-66
2022/12/29 07:32:36;;;;;;;17.70;5.90;;;;;;;3.54;61.34;98996.38;103211;1294;107418;-71
2022/12/29 07:35:06;;;;;;;12.80;4.40;;;;;;;3.58;61.49;98993.39;103197;1294;99260;-71
2022/12/29 07:37:34;;;;;;;13.70;5.00;;;;;;;3.63;61.67;98991.95;103145;1295;96545;-69
2022/12/29 07:40:05;;;;;;;13.40;5.00;;;;;;;3.68;61.77;98986.48;103128;1294;113122;-67
2022/12/29 07:42:33;;;;;;;13.70;5.20;;;;;;;3.76;62.02;98983.67;103144;1301;99218;-72
2022/12/29 07:45:04;;;;;;;16.00;5.50;;;;;;;3.83;61.75;98987.00;103181;1294;108066;-70
2022/12/29 07:47:32;;;;;;;17.20;5.00;;;;;;;3.85;61.00;98994.13;103133;1301;99340;-70
2022/12/29 07:50:00;;;;;;;13.20;4.80;;;;;;;3.81;61.39;98987.61;103160;1290;99304;-70
2022/12/29 07:52:28;;;;;;;13.40;5.00;;;;;;;3.80;61.48;98974.33;103166;1294;112551;-71
2022/12/29 07:54:56;;;;;;;16.40;5.40;;;;;;;3.78;61.04;98970.92;103106;1295;99307;-71
2022/12/29 07:57:25;;;;;;;11.60;4.80;;;;;;;3.76;61.33;98968.56;103185;1302;107251;-70
2022/12/29 07:59:59;;;;;;;15.60;5.70;;;;;;;3.76;60.96;98965.95;103259;1301;99203;-71
2022/12/29 08:02:29;;;;;;;14.80;5.90;;;;;;;3.73;60.97;98960.80;103203;1297;99261;-69
2022/12/29 08:04:57;;;;;;;13.20;6.00;;;;;;;3.75;61.48;98963.70;103190;1295;113387;-69
2022/12/29 08:07:25;;;;;;;14.10;5.00;;;;;;;3.76;61.30;98960.86;103202;1302;99820;-68
2022/12/29 08:09:53;;;;;;;18.90;6.40;;;;;;;3.75;61.15;98956.34;103189;1297;107438;-71
2022/12/29 08:12:22;;;;;;;16.70;6.00;;;;;;;3.77;61.39;98963.98;103216;1302;99314;-70
2022/12/29 08:14:51;;;;;;;11.90;5.30;;;;;;;3.79;61.51;98960.36;103274;1295;99315;-72
2022/12/29 08:17:19;;;;;;;18.10;5.50;;;;;;;3.80;61.57;98960.47;103294;1291;112565;-71
2022/12/29 08:19:47;;;;;;;13.40;5.40;;;;;;;3.83;61.38;98963.70;103275;1301;99438;-69
2022/12/29 08:22:15;;;;;;;12.40;5.40;;;;;;;3.85;61.39;98961.66;103156;1304;108028;-68
2022/12/29 08:24:43;;;;;;;14.30;5.30;;;;;;;3.86;61.43;98965.80;103263;1298;98719;-69
2022/12/29 08:27:11;;;;;;;15.00;5.90;;;;;;;3.90;61.49;98967.04;103202;1295;99329;-70
2022/12/29 08:29:48;;;;;;;15.10;5.50;;;;;;;3.94;61.72;98967.37;103220;1300;112447;-70
2022/12/29 08:32:19;;;;;;;17.10;5.60;;;;;;;3.98;61.43;98974.04;103119;1288;99237;-69
2022/12/29 08:34:47;;;;;;;16.70;5.80;;;;;;;4.00;61.46;98980.77;103289;1300;108130;-69
2022/12/29 08:37:15;;;;;;;18.80;6.10;;;;;;;4.04;61.55;98982.70;103172;1294;97762;-68
2022/12/29 08:39:43;;;;;;;15.60;5.90;;;;;;;4.09;60.74;98983.55;103193;1294;99228;-70
2022/12/29 08:42:11;;;;;;;17.90;5.90;;;;;;;4.13;61.25;98978.95;103428;1296;112535;-68
2022/12/29 08:44:39;;;;;;;17.50;6.30;;;;;;;4.19;61.04;98971.65;103270;1301;99281;-69
2022/12/29 08:47:11;;;;;;;16.60;6.00;;;;;;;4.23;61.21;98970.02;103240;1294;108004;-68
2022/12/29 08:49:39;;;;;;;16.80;5.70;;;;;;;4.27;61.20;98977.91;103307;1301;99321;-71
2022/12/29 08:52:09;;;;;;;20.20;6.80;;;;;;;4.31;61.08;98975.79;103172;1293;100794;-68
2022/12/29 08:54:37;;;;;;;17.50;5.50;;;;;;;4.36;61.31;98972.57;103252;1295;112240;-68
2022/12/29 08:57:09;;;;;;;13.70;5.30;;;;;;;4.40;60.90;98963.98;103304;1288;99229;-68
2022/12/29 08:59:37;;;;;;;14.50;5.60;;;;;;;4.40;60.87;98969.59;103244;1295;108105;-71
2022/12/29 09:02:12;;;;;;;19.80;5.90;;;;;;;4.41;61.08;98971.49;103301;1296;99095;-69
2022/12/29 09:04:51;;;;;;;16.50;5.70;;;;;;;4.44;61.02;98957.61;103266;1298;97944;-70
2022/12/29 09:07:20;;;;;;;15.80;6.10;;;;;;;4.47;61.00;98965.07;103255;1301;112537;-72
2022/12/29 09:09:48;;;;;;;15.80;6.40;;;;;;;4.49;61.20;98964.08;103313;1301;99255;-68
2022/12/29 09:12:19;;;;;;;16.10;6.50;;;;;;;4.51;60.76;98966.45;103242;1301;107535;-71
2022/12/29 09:14:47;;;;;;;12.90;5.40;;;;;;;4.52;61.03;98958.79;103301;1294;99951;-69
2022/12/29 09:20:04;;;;;;;18.80;6.60;;;;;;;4.75;61.18;98957.15;103175;1302;112074;-69
2022/12/29 09:22:33;;;;;;;17.90;5.90;;;;;;;4.93;61.35;98954.48;103222;1287;99336;-69
2022/12/29 09:25:01;;;;;;;17.70;6.30;;;;;;;5.06;60.93;98951.74;103172;1301;108353;-69
2022/12/29 09:27:30;;;;;;;17.30;5.80;;;;;;;5.15;61.15;98941.41;103042;1304;99698;-69
2022/12/29 09:29:58;;;;;;;18.40;6.20;;;;;;;5.20;60.97;98933.39;103175;1302;98958;-70
2022/12/29 09:32:28;;;;;;;16.70;6.00;;;;;;;5.22;60.68;98927.67;103134;1294;112176;-69
2022/12/29 09:35:01;;;;;;;15.60;5.40;;;;;;;5.20;61.08;98934.14;103208;1295;99326;-72
2022/12/29 09:37:29;;;;;;;16.50;5.70;;;;;;;5.19;60.89;98934.51;103207;1295;107538;-69
2022/12/29 09:39:58;;;;;;;17.60;6.10;;;;;;;5.17;60.65;98938.84;103207;1295;99302;-70
2022/12/29 09:42:41;;;;;;;17.90;6.10;;;;;;;5.17;60.96;98940.27;103162;1295;99263;-69
2022/12/29 09:45:28;;;;;;;18.50;6.10;;;;;;;5.19;61.16;98937.84;103213;1301;111516;-70
2022/12/29 09:47:56;;;;;;;16.30;5.70;;;;;;;5.26;61.07;98932.08;103198;1301;97366;-69
2022/12/29 09:50:36;;;;;;;20.40;6.40;;;;;;;5.29;60.95;98930.84;103217;1297;108142;-69
2022/12/29 09:53:22;;;;;;;18.10;6.00;;;;;;;5.31;60.88;98940.73;103206;1294;98276;-71
2022/12/29 09:56:01;;;;;;;13.50;5.90;;;;;;;5.32;60.89;98940.88;103347;1302;99253;-70
2022/12/29 09:58:33;;;;;;;15.70;6.10;;;;;;;5.33;60.90;98941.84;103216;1302;113114;-69
2022/12/29 10:01:22;;;;;;;15.60;5.70;;;;;;;5.42;61.13;98944.40;103242;1295;99230;-69
2022/12/29 10:03:58;;;;;;;16.70;6.30;;;;;;;5.54;61.17;98942.89;103169;1301;107435;-70
2022/12/29 10:06:51;;;;;;;18.30;5.80;;;;;;;5.64;60.99;98932.16;103169;1301;99614;-70
2022/12/29 10:09:52;;;;;;;15.40;5.20;;;;;;;5.75;61.13;98932.95;103270;1297;99156;-73
2022/12/29 10:12:20;;;;;;;16.30;6.20;;;;;;;5.84;61.13;98924.73;103263;1294;113381;-70
2022/12/29 10:15:03;;;;;;;19.00;6.40;;;;;;;5.86;61.00;98925.14;103245;1301;99798;-69
2022/12/29 10:17:50;;;;;;;20.50;6.60;;;;;;;5.81;60.88;98920.11;103233;1297;108046;-72
2022/12/29 10:20:34;;;;;;;13.90;5.70;;;;;;;5.77;60.90;98916.50;103283;1302;99296;-70
2022/12/29 10:23:05;;;;;;;;;;;;;;;5.75;60.97;98917.15;103334;1302;99166;-69
2022/12/29 10:25:41;;;;;;;18.00;7.10;;;;;;;5.69;60.74;98916.58;103255;1301;112546;-70
2022/12/29 10:28:36;;;;;;;16.30;5.90;;;;;;;5.69;60.91;98916.79;103260;1301;99233;-71
2022/12/29 10:31:19;;;;;;;16.60;6.70;;;;;;;5.70;60.86;98918.27;103113;1302;107443;-69
2022/12/29 10:34:01;;;;;;;18.30;6.50;;;;;;;5.73;61.02;98909.13;103249;1300;99338;-70
2022/12/29 10:36:41;;;;;;;15.70;5.70;;;;;;;5.75;60.88;98904.61;103286;1294;99187;-69
2022/12/29 10:39:29;;;;;;;16.50;6.20;;;;;;;5.76;60.90;98918.29;103264;1294;112192;-69
2022/12/29 10:42:15;;;;;;;14.30;5.70;;;;;;;5.74;60.66;98915.74;103335;1300;99333;-69
2022/12/29 10:44:43;;;;;;;14.60;6.30;;;;;;;5.73;60.90;98910.88;103209;1300;107533;-69
2022/12/29 10:47:16;;;;;;;16.80;6.10;;;;;;;5.76;60.90;98902.61;103283;1294;99349;-69
2022/12/29 10:49:49;;;;;;;15.50;6.00;;;;;;;5.79;60.85;98896.30;103252;1286;97569;-69
2022/12/29 10:52:23;;;;;;;15.00;5.80;;;;;;;5.80;60.38;98888.17;103258;1300;111782;-68
2022/12/29 10:54:53;;;;;;;;;;;;;;;5.81;60.75;98883.16;103246;1294;97567;-70
2022/12/29 10:57:32;;;;;;;16.30;6.00;;;;;;;5.85;60.60;98884.71;103222;1294;108058;-69
2022/12/29 11:00:00;;;;;;;16.80;6.70;;;;;;;5.92;60.38;98877.80;103225;1294;97750;-68
2022/12/29 11:03:09;;;;;;;15.80;5.80;;;;;;;5.96;60.58;98872.83;103276;1285;99743;-71
2022/12/29 11:05:49;;;;;;;15.90;6.50;;;;;;;5.99;60.32;98878.48;103321;1295;113137;-68
2022/12/29 11:08:27;;;;;;;17.00;6.10;;;;;;;6.01;60.48;98884.40;103218;1302;99335;-69
2022/12/29 11:11:09;;;;;;;18.50;6.30;;;;;;;6.03;60.05;98880.41;103250;1295;106814;-68
2022/12/29 11:14:13;;;;;;;17.40;7.00;;;;;;;6.05;60.04;98879.94;103256;1288;99286;-68
2022/12/29 11:16:43;;;;;;;18.10;7.20;;;;;;;6.06;60.29;98878.29;103268;1294;96600;-72
2022/12/29 11:19:28;;;;;;;19.80;6.50;;;;;;;6.16;60.94;98877.39;103235;1301;112527;-68
2022/12/29 11:22:17;;;;;;;17.70;7.10;;;;;;;6.28;60.24;98877.05;103187;1301;99305;-67
2022/12/29 11:24:49;;;;;;;16.20;6.30;;;;;;;6.36;59.90;98871.09;103259;1300;107688;-68
2022/12/29 11:27:25;;;;;;;18.00;5.90;;;;;;;6.35;59.89;98872.95;103235;1294;99367;-70
2022/12/29 11:29:56;;;;;;;24.20;6.80;;;;;;;6.28;59.63;98877.19;103260;1295;99309;-71
2022/12/29 11:32:31;;;;;;;20.10;6.70;;;;;;;6.22;59.91;98868.23;103269;1301;112171;-70
2022/12/29 11:35:03;;;;;;;18.30;6.60;;;;;;;6.17;60.32;98873.77;103303;1303;99216;-70
2022/12/29 11:37:39;;;;;;;16.50;6.20;;;;;;;6.17;60.27;98870.60;103321;1301;107457;-70
2022/12/29 11:40:21;;;;;;;16.00;6.00;;;;;;;6.17;59.82;98870.77;103283;1300;99891;-70
2022/12/29 11:43:02;;;;;;;18.40;6.80;;;;;;;6.24;59.95;98878.33;103311;1295;99650;-71
2022/12/29 11:45:35;;;;;;;19.20;6.90;;;;;;;6.31;60.01;98869.84;103324;1294;112883;-70
2022/12/29 11:48:18;;;;;;;17.30;6.70;;;;;;;6.35;59.26;98872.23;103302;1301;97499;-70
2022/12/29 11:51:00;;;;;;;14.80;5.80;;;;;;;6.39;60.12;98871.27;103234;1296;107153;-70
2022/12/29 11:53:46;;;;;;;19.10;6.40;;;;;;;6.42;59.58;98860.73;103194;1294;97845;-70
2022/12/29 11:56:19;;;;;;;21.20;6.40;;;;;;;6.40;59.27;98867.88;103237;1297;97551;-72
2022/12/29 11:58:50;;;;;;;16.10;6.20;;;;;;;6.38;59.20;98860.80;103285;1301;113360;-70
2022/12/29 12:01:23;;;;;;;20.90;7.20;;;;;;;6.40;59.82;98854.84;103326;1287;99240;-71
2022/12/29 12:04:04;;;;;;;19.30;7.80;;;;;;;6.45;60.13;98849.27;103306;1294;108143;-69
2022/12/29 12:06:45;;;;;;;18.20;6.80;;;;;;;6.51;59.35;98852.48;103243;1294;99248;-70
2022/12/29 12:09:25;;;;;;;20.50;6.80;;;;;;;6.53;59.72;98846.16;103322;1295;96723;-70
2022/12/29 12:11:55;;;;;;;18.20;6.50;;;;;;;6.57;59.64;98846.27;103305;1287;111965;-70
2022/12/29 12:14:54;;;;;;;16.50;6.50;;;;;;;6.53;59.23;98844.23;103285;1297;97850;-69
2022/12/29 12:17:27;;;;;;;18.20;6.80;;;;;;;6.45;59.61;98839.26;103214;1294;108998;-73
2022/12/29 12:20:05;;;;;;;17.90;7.00;;;;;;;6.42;59.48;98845.07;103258;1292;99210;-71
2022/12/29 12:22:43;;;;;;;19.80;6.70;;;;;;;6.42;59.64;98846.97;103250;1294;99243;-73
2022/12/29 12:25:20;;;;;;;16.90;6.80;;;;;;;6.47;59.74;98845.30;103227;1300;112468;-71